sensor_id;sensor_type;location;lat;lon;timestamp;pressure;altitude;pressure_sealevel;temperature
15144;BMP180;7672;50.834;6.286;2023-05-10T00:00:28;99013.94;;;17.24
15144;BMP180;7672;50.834;6.286;2023-05-10T00:02:55;99013.09;;;17.24
15144;BMP180;7672;50.834;6.286;2023-05-10T00:05:22;99019.09;;;17.23
15144;BMP180;7672;50.834;6.286;2023-05-10T00:07:49;99009.69;;;17.23
15144;BMP180;7672;50.834;6.286;2023-05-10T00:10:16;99019.03;;;17.24
15144;BMP180;7672;50.834;6.286;2023-05-10T00:12:43;99021.59;;;17.24
15144;BMP180;7672;50.834;6.286;2023-05-10T00:15:10;99010.53;;;17.25
15144;BMP180;7672;50.834;6.286;2023-05-10T00:17:37;99011.38;;;17.24
15144;BMP180;7672;50.834;6.286;2023-05-10T00:20:05;99012.22;;;17.26
15144;BMP180;7672;50.834;6.286;2023-05-10T00:22:33;99013.91;;;17.26
15144;BMP180;7672;50.834;6.286;2023-05-10T00:25:00;99009.66;;;17.26
15144;BMP180;7672;50.834;6.286;2023-05-10T00:27:27;99010.53;;;17.25
15144;BMP180;7672;50.834;6.286;2023-05-10T00:29:54;99015.66;;;17.24
15144;BMP180;7672;50.834;6.286;2023-05-10T00:32:21;99016.47;;;17.24
15144;BMP180;7672;50.834;6.286;2023-05-10T00:34:48;99006.31;;;17.23
15144;BMP180;7672;50.834;6.286;2023-05-10T00:37:15;99014.81;;;17.23
15144;BMP180;7672;50.834;6.286;2023-05-10T00:39:42;99006.28;;;17.24
15144;BMP180;7672;50.834;6.286;2023-05-10T00:42:10;99016.47;;;17.24
15144;BMP180;7672;50.834;6.286;2023-05-10T00:44:37;99013.09;;;17.25
15144;BMP180;7672;50.834;6.286;2023-05-10T00:47:05;99012.22;;;17.25
15144;BMP180;7672;50.834;6.286;2023-05-10T00:49:32;99008.81;;;17.26
15144;BMP180;7672;50.834;6.286;2023-05-10T00:51:59;99012.22;;;17.26
15144;BMP180;7672;50.834;6.286;2023-05-10T00:54:28;99016.47;;;17.26
15144;BMP180;7672;50.834;6.286;2023-05-10T00:56:56;99017.38;;;17.23
15144;BMP180;7672;50.834;6.286;2023-05-10T00:59:24;99012.25;;;17.23
15144;BMP180;7672;50.834;6.286;2023-05-10T01:01:52;99014.00;;;17.23
15144;BMP180;7672;50.834;6.286;2023-05-10T01:04:20;99012.31;;;17.22
15144;BMP180;7672;50.834;6.286;2023-05-10T01:06:53;99015.72;;;17.22
15144;BMP180;7672;50.834;6.286;2023-05-10T01:09:21;99012.25;;;17.23
15144;BMP180;7672;50.834;6.286;2023-05-10T01:11:49;99013.94;;;17.24
15144;BMP180;7672;50.834;6.286;2023-05-10T01:14:18;99016.47;;;17.24
15144;BMP180;7672;50.834;6.286;2023-05-10T01:16:48;99014.75;;;17.26
15144;BMP180;7672;50.834;6.286;2023-05-10T01:19:25;99007.97;;;17.25
15144;BMP180;7672;50.834;6.286;2023-05-10T01:34:13;99018.34;;;17.19
15144;BMP180;7672;50.834;6.286;2023-05-10T01:37:05;99016.69;;;17.18
15144;BMP180;7672;50.834;6.286;2023-05-10T01:42:47;99015.84;;;17.18
15144;BMP180;7672;50.834;6.286;2023-05-10T01:45:30;99010.75;;;17.18
15144;BMP180;7672;50.834;6.286;2023-05-10T01:48:10;99015.03;;;17.17
15144;BMP180;7672;50.834;6.286;2023-05-10T01:50:43;99022.56;;;17.20
15144;BMP180;7672;50.834;6.286;2023-05-10T01:53:13;99020.84;;;17.21
15144;BMP180;7672;50.834;6.286;2023-05-10T01:55:47;99026.81;;;17.21
15144;BMP180;7672;50.834;6.286;2023-05-10T01:58:28;99024.25;;;17.21
15144;BMP180;7672;50.834;6.286;2023-05-10T02:01:00;99023.38;;;17.22
15144;BMP180;7672;50.834;6.286;2023-05-10T02:03:30;99027.56;;;17.23
15144;BMP180;7672;50.834;6.286;2023-05-10T02:05:59;99026.69;;;17.24
15144;BMP180;7672;50.834;6.286;2023-05-10T02:08:26;99019.00;;;17.26
15144;BMP180;7672;50.834;6.286;2023-05-10T02:10:56;99022.41;;;17.26
15144;BMP180;7672;50.834;6.286;2023-05-10T02:13:25;99017.31;;;17.26
15144;BMP180;7672;50.834;6.286;2023-05-10T02:15:54;99028.34;;;17.27
15144;BMP180;7672;50.834;6.286;2023-05-10T02:18:23;99029.19;;;17.27
15144;BMP180;7672;50.834;6.286;2023-05-10T02:20:53;99029.19;;;17.27
15144;BMP180;7672;50.834;6.286;2023-05-10T02:23:23;99033.47;;;17.27
15144;BMP180;7672;50.834;6.286;2023-05-10T02:25:54;99043.72;;;17.25
15144;BMP180;7672;50.834;6.286;2023-05-10T02:28:24;99033.50;;;17.25
15144;BMP180;7672;50.834;6.286;2023-05-10T02:30:54;99042.88;;;17.25
15144;BMP180;7672;50.834;6.286;2023-05-10T02:33:22;99036.09;;;17.24
15144;BMP180;7672;50.834;6.286;2023-05-10T02:35:52;99039.47;;;17.24
15144;BMP180;7672;50.834;6.286;2023-05-10T02:38:22;99043.72;;;17.25
15144;BMP180;7672;50.834;6.286;2023-05-10T02:40:51;99048.91;;;17.22
15144;BMP180;7672;50.834;6.286;2023-05-10T02:43:20;99048.13;;;17.20
15144;BMP180;7672;50.834;6.286;2023-05-10T02:45:49;99048.16;;;17.19
15144;BMP180;7672;50.834;6.286;2023-05-10T02:48:16;99052.41;;;17.18
15144;BMP180;7672;50.834;6.286;2023-05-10T02:50:45;99054.16;;;17.18
15144;BMP180;7672;50.834;6.286;2023-05-10T02:53:23;99050.78;;;17.17
15144;BMP180;7672;50.834;6.286;2023-05-10T02:56:00;99046.56;;;17.16
15144;BMP180;7672;50.834;6.286;2023-05-10T02:58:28;99049.09;;;17.16
15144;BMP180;7672;50.834;6.286;2023-05-10T03:00:55;99051.66;;;17.16
15144;BMP180;7672;50.834;6.286;2023-05-10T03:03:22;99056.75;;;17.16
15144;BMP180;7672;50.834;6.286;2023-05-10T03:05:50;99049.16;;;17.15
15144;BMP180;7672;50.834;6.286;2023-05-10T03:08:17;99048.31;;;17.14
15144;BMP180;7672;50.834;6.286;2023-05-10T03:16:45;99049.63;;;17.00
15144;BMP180;7672;50.834;6.286;2023-05-10T03:19:54;99050.56;;;16.97
15144;BMP180;7672;50.834;6.286;2023-05-10T03:22:36;99052.31;;;16.95
15144;BMP180;7672;50.834;6.286;2023-05-10T03:25:06;99053.19;;;16.96
15144;BMP180;7672;50.834;6.286;2023-05-10T03:27:37;99059.09;;;16.96
15144;BMP180;7672;50.834;6.286;2023-05-10T03:30:10;99060.84;;;16.96
15144;BMP180;7672;50.834;6.286;2023-05-10T03:32:38;99060.88;;;16.94
15144;BMP180;7672;50.834;6.286;2023-05-10T03:35:12;99055.81;;;16.93
15144;BMP180;7672;50.834;6.286;2023-05-10T03:37:41;99055.09;;;16.89
15144;BMP180;7672;50.834;6.286;2023-05-10T03:40:08;99050.84;;;16.88
15144;BMP180;7672;50.834;6.286;2023-05-10T03:42:38;99062.00;;;16.86
15144;BMP180;7672;50.834;6.286;2023-05-10T03:45:06;99056.91;;;16.86
15144;BMP180;7672;50.834;6.286;2023-05-10T03:47:33;99055.28;;;16.83
15144;BMP180;7672;50.834;6.286;2023-05-10T03:50:01;99057.81;;;16.83
15144;BMP180;7672;50.834;6.286;2023-05-10T03:52:29;99053.66;;;16.81
15144;BMP180;7672;50.834;6.286;2023-05-10T03:54:56;99055.41;;;16.79
15144;BMP180;7672;50.834;6.286;2023-05-10T03:57:23;99059.72;;;16.77
15144;BMP180;7672;50.834;6.286;2023-05-10T03:59:51;99064.88;;;16.75
15144;BMP180;7672;50.834;6.286;2023-05-10T04:02:18;99062.41;;;16.72
15144;BMP180;7672;50.834;6.286;2023-05-10T04:04:45;99064.97;;;16.72
15144;BMP180;7672;50.834;6.286;2023-05-10T04:07:12;99064.19;;;16.71
15144;BMP180;7672;50.834;6.286;2023-05-10T04:09:39;99067.63;;;16.70
15144;BMP180;7672;50.834;6.286;2023-05-10T04:12:06;99071.91;;;16.69
15144;BMP180;7672;50.834;6.286;2023-05-10T04:14:36;99076.13;;;16.69
15144;BMP180;7672;50.834;6.286;2023-05-10T04:17:04;99082.91;;;16.70
15144;BMP180;7672;50.834;6.286;2023-05-10T04:19:31;99070.13;;;16.71
15144;BMP180;7672;50.834;6.286;2023-05-10T04:21:58;99076.03;;;16.71
15144;BMP180;7672;50.834;6.286;2023-05-10T04:24:26;99070.13;;;16.71
15144;BMP180;7672;50.834;6.286;2023-05-10T04:26:54;99070.06;;;16.72
15144;BMP180;7672;50.834;6.286;2023-05-10T04:29:23;99069.19;;;16.73
15144;BMP180;7672;50.834;6.286;2023-05-10T04:31:50;99068.31;;;16.74
15144;BMP180;7672;50.834;6.286;2023-05-10T04:34:17;99067.47;;;16.74
15144;BMP180;7672;50.834;6.286;2023-05-10T04:36:45;99074.19;;;16.76
15144;BMP180;7672;50.834;6.286;2023-05-10T04:39:12;99071.63;;;16.78
15144;BMP180;7672;50.834;6.286;2023-05-10T04:41:40;99075.88;;;16.77
15144;BMP180;7672;50.834;6.286;2023-05-10T04:44:07;99073.25;;;16.79
15144;BMP180;7672;50.834;6.286;2023-05-10T04:46:34;99067.34;;;16.78
15144;BMP180;7672;50.834;6.286;2023-05-10T04:49:01;99082.53;;;16.81
15144;BMP180;7672;50.834;6.286;2023-05-10T04:51:28;99082.53;;;16.81
15144;BMP180;7672;50.834;6.286;2023-05-10T04:53:55;99079.97;;;16.83
15144;BMP180;7672;50.834;6.286;2023-05-10T04:56:32;99082.47;;;16.84
15144;BMP180;7672;50.834;6.286;2023-05-10T04:59:00;99090.94;;;16.85
15144;BMP180;7672;50.834;6.286;2023-05-10T05:01:27;99086.66;;;16.85
15144;BMP180;7672;50.834;6.286;2023-05-10T05:03:54;99077.34;;;16.84
15144;BMP180;7672;50.834;6.286;2023-05-10T05:06:21;99084.91;;;16.87
15144;BMP180;7672;50.834;6.286;2023-05-10T05:08:48;99087.47;;;16.87
15144;BMP180;7672;50.834;6.286;2023-05-10T05:11:17;99085.72;;;16.89
15144;BMP180;7672;50.834;6.286;2023-05-10T05:13:44;99080.59;;;16.89
15144;BMP180;7672;50.834;6.286;2023-05-10T05:16:11;99083.09;;;16.91
15144;BMP180;7672;50.834;6.286;2023-05-10T05:18:39;99091.59;;;16.91
15144;BMP180;7672;50.834;6.286;2023-05-10T05:21:16;99095.00;;;16.92
15144;BMP180;7672;50.834;6.286;2023-05-10T05:23:44;99093.28;;;16.92
15144;BMP180;7672;50.834;6.286;2023-05-10T05:26:12;99091.53;;;16.93
15144;BMP180;7672;50.834;6.286;2023-05-10T05:28:39;99095.72;;;16.95
15144;BMP180;7672;50.834;6.286;2023-05-10T05:31:07;99097.34;;;16.98
15144;BMP180;7672;50.834;6.286;2023-05-10T05:33:35;99098.97;;;17.00
15144;BMP180;7672;50.834;6.286;2023-05-10T05:36:04;99103.13;;;17.03
15144;BMP180;7672;50.834;6.286;2023-05-10T05:38:31;99107.25;;;17.07
15144;BMP180;7672;50.834;6.286;2023-05-10T05:40:58;99103.00;;;17.07
15144;BMP180;7672;50.834;6.286;2023-05-10T05:43:25;99114.06;;;17.08
15144;BMP180;7672;50.834;6.286;2023-05-10T05:45:53;99118.28;;;17.09
15144;BMP180;7672;50.834;6.286;2023-05-10T05:48:24;99122.50;;;17.10
15144;BMP180;7672;50.834;6.286;2023-05-10T05:50:55;99120.78;;;17.10
15144;BMP180;7672;50.834;6.286;2023-05-10T05:53:23;99126.75;;;17.11
15144;BMP180;7672;50.834;6.286;2023-05-10T05:55:56;99129.28;;;17.11
15144;BMP180;7672;50.834;6.286;2023-05-10T05:58:26;99131.03;;;17.09
15144;BMP180;7672;50.834;6.286;2023-05-10T06:00:53;99135.28;;;17.10
15144;BMP180;7672;50.834;6.286;2023-05-10T06:03:20;99137.78;;;17.11
15144;BMP180;7672;50.834;6.286;2023-05-10T06:05:48;99135.22;;;17.11
15144;BMP180;7672;50.834;6.286;2023-05-10T06:08:15;99137.66;;;17.14
15144;BMP180;7672;50.834;6.286;2023-05-10T06:10:42;99149.47;;;17.18
15144;BMP180;7672;50.834;6.286;2023-05-10T06:13:09;99139.16;;;17.21
15144;BMP180;7672;50.834;6.286;2023-05-10T06:15:37;99139.91;;;17.26
15144;BMP180;7672;50.834;6.286;2023-05-10T06:18:04;99139.72;;;17.31
15144;BMP180;7672;50.834;6.286;2023-05-10T06:20:31;99140.44;;;17.35
15144;BMP180;7672;50.834;6.286;2023-05-10T06:22:58;99139.38;;;17.42
15144;BMP180;7672;50.834;6.286;2023-05-10T06:25:25;99140.81;;;17.49
15144;BMP180;7672;50.834;6.286;2023-05-10T06:27:53;99144.88;;;17.56
15144;BMP180;7672;50.834;6.286;2023-05-10T06:30:25;99149.69;;;17.65
15144;BMP180;7672;50.834;6.286;2023-05-10T06:32:56;99152.75;;;17.75
15144;BMP180;7672;50.834;6.286;2023-05-10T06:35:24;99154.13;;;17.85
15144;BMP180;7672;50.834;6.286;2023-05-10T06:37:51;99155.50;;;17.95
15144;BMP180;7672;50.834;6.286;2023-05-10T06:40:18;99160.09;;;18.09
15144;BMP180;7672;50.834;6.286;2023-05-10T06:42:48;99160.47;;;18.23
15144;BMP180;7672;50.834;6.286;2023-05-10T06:45:15;99169.47;;;18.33
15144;BMP180;7672;50.834;6.286;2023-05-10T06:47:43;99171.69;;;18.44
15144;BMP180;7672;50.834;6.286;2023-05-10T06:50:11;99171.41;;;18.51
15144;BMP180;7672;50.834;6.286;2023-05-10T06:52:39;99176.28;;;18.57
15144;BMP180;7672;50.834;6.286;2023-05-10T06:55:07;99177.84;;;18.61
15144;BMP180;7672;50.834;6.286;2023-05-10T06:57:35;99176.97;;;18.62
15144;BMP180;7672;50.834;6.286;2023-05-10T07:00:03;99179.44;;;18.65
15144;BMP180;7672;50.834;6.286;2023-05-10T07:02:33;99177.69;;;18.65
15144;BMP180;7672;50.834;6.286;2023-05-10T07:05:00;99183.59;;;18.67
15144;BMP180;7672;50.834;6.286;2023-05-10T07:07:29;99183.59;;;18.67
15144;BMP180;7672;50.834;6.286;2023-05-10T07:09:56;99193.78;;;18.69
15144;BMP180;7672;50.834;6.286;2023-05-10T07:12:25;99192.09;;;18.68
15144;BMP180;7672;50.834;6.286;2023-05-10T07:14:52;99195.56;;;18.67
15144;BMP180;7672;50.834;6.286;2023-05-10T07:17:19;99193.19;;;18.61
15144;BMP180;7672;50.834;6.286;2023-05-10T07:19:47;99200.25;;;18.55
15144;BMP180;7672;50.834;6.286;2023-05-10T07:22:15;99203.22;;;18.44
15144;BMP180;7672;50.834;6.286;2023-05-10T07:24:43;99211.22;;;18.35
15144;BMP180;7672;50.834;6.286;2023-05-10T07:27:10;99202.84;;;18.30
15144;BMP180;7672;50.834;6.286;2023-05-10T07:29:37;99214.91;;;18.27
15144;BMP180;7672;50.834;6.286;2023-05-10T07:32:05;99207.47;;;18.21
15144;BMP180;7672;50.834;6.286;2023-05-10T07:34:32;99213.56;;;18.15
15144;BMP180;7672;50.834;6.286;2023-05-10T07:37:00;99215.44;;;18.10
15144;BMP180;7672;50.834;6.286;2023-05-10T07:39:27;99221.50;;;18.08
15144;BMP180;7672;50.834;6.286;2023-05-10T07:41:57;99218.16;;;18.06
15144;BMP180;7672;50.834;6.286;2023-05-10T07:44:24;99217.28;;;18.07
15144;BMP180;7672;50.834;6.286;2023-05-10T07:46:52;99212.88;;;18.10
15144;BMP180;7672;50.834;6.286;2023-05-10T07:49:19;99220.34;;;18.18
15144;BMP180;7672;50.834;6.286;2023-05-10T07:51:46;99218.31;;;18.27
15144;BMP180;7672;50.834;6.286;2023-05-10T07:54:14;99227.28;;;18.39
15144;BMP180;7672;50.834;6.286;2023-05-10T07:56:41;99224.28;;;18.51
15144;BMP180;7672;50.834;6.286;2023-05-10T07:59:17;99231.38;;;18.67
15144;BMP180;7672;50.834;6.286;2023-05-10T08:01:45;99223.22;;;18.80
15144;BMP180;7672;50.834;6.286;2023-05-10T08:04:12;99228.00;;;18.89
15144;BMP180;7672;50.834;6.286;2023-05-10T08:06:40;99230.16;;;19.00
15144;BMP180;7672;50.834;6.286;2023-05-10T08:09:08;99239.28;;;19.08
15144;BMP180;7672;50.834;6.286;2023-05-10T08:11:35;99247.56;;;19.15
15144;BMP180;7672;50.834;6.286;2023-05-10T08:14:02;99243.19;;;19.18
15144;BMP180;7672;50.834;6.286;2023-05-10T08:16:29;99247.34;;;19.21
15144;BMP180;7672;50.834;6.286;2023-05-10T08:18:56;99242.88;;;19.25
15144;BMP180;7672;50.834;6.286;2023-05-10T08:21:24;99236.69;;;19.31
15144;BMP180;7672;50.834;6.286;2023-05-10T08:23:51;99246.41;;;19.44
15144;BMP180;7672;50.834;6.286;2023-05-10T08:26:18;99241.34;;;19.64
15144;BMP180;7672;50.834;6.286;2023-05-10T08:28:45;99233.47;;;19.90
15144;BMP180;7672;50.834;6.286;2023-05-10T08:31:12;99241.09;;;20.13
15144;BMP180;7672;50.834;6.286;2023-05-10T08:33:40;99252.19;;;20.33
15144;BMP180;7672;50.834;6.286;2023-05-10T08:36:10;99248.00;;;20.50
15144;BMP180;7672;50.834;6.286;2023-05-10T08:38:37;99247.47;;;20.62
15144;BMP180;7672;50.834;6.286;2023-05-10T08:41:05;99244.59;;;20.70
15144;BMP180;7672;50.834;6.286;2023-05-10T08:43:35;99257.19;;;20.76
15144;BMP180;7672;50.834;6.286;2023-05-10T08:46:05;99258.78;;;20.78
15144;BMP180;7672;50.834;6.286;2023-05-10T08:48:34;99258.78;;;20.78
15144;BMP180;7672;50.834;6.286;2023-05-10T08:51:03;99264.78;;;20.79
15144;BMP180;7672;50.834;6.286;2023-05-10T08:53:33;99266.47;;;20.78
15144;BMP180;7672;50.834;6.286;2023-05-10T08:56:03;99266.78;;;20.72
15144;BMP180;7672;50.834;6.286;2023-05-10T08:58:30;99273.66;;;20.70
15144;BMP180;7672;50.834;6.286;2023-05-10T09:00:59;99268.09;;;20.81
15144;BMP180;7672;50.834;6.286;2023-05-10T09:03:26;99278.25;;;21.02
15144;BMP180;7672;50.834;6.286;2023-05-10T09:05:53;99277.31;;;21.23
15144;BMP180;7672;50.834;6.286;2023-05-10T09:08:23;99280.50;;;21.46
15144;BMP180;7672;50.834;6.286;2023-05-10T09:10:57;99288.44;;;21.60
15144;BMP180;7672;50.834;6.286;2023-05-10T09:13:25;99294.44;;;21.61
15144;BMP180;7672;50.834;6.286;2023-05-10T09:15:53;99297.03;;;21.59
15144;BMP180;7672;50.834;6.286;2023-05-10T09:18:20;99303.25;;;21.55
15144;BMP180;7672;50.834;6.286;2023-05-10T09:20:48;99304.28;;;21.51
15144;BMP180;7672;50.834;6.286;2023-05-10T09:23:16;99300.16;;;21.47
15144;BMP180;7672;50.834;6.286;2023-05-10T09:25:43;99307.72;;;21.52
15144;BMP180;7672;50.834;6.286;2023-05-10T09:28:11;99313.59;;;21.54
15144;BMP180;7672;50.834;6.286;2023-05-10T09:30:38;99305.06;;;21.53
15144;BMP180;7672;50.834;6.286;2023-05-10T09:33:05;99307.56;;;21.55
15144;BMP180;7672;50.834;6.286;2023-05-10T09:35:33;99308.53;;;21.52
15144;BMP180;7672;50.834;6.286;2023-05-10T09:38:04;99304.34;;;21.50
15144;BMP180;7672;50.834;6.286;2023-05-10T09:40:32;99302.81;;;21.46
15144;BMP180;7672;50.834;6.286;2023-05-10T09:43:10;99308.22;;;21.40
15144;BMP180;7672;50.834;6.286;2023-05-10T09:45:37;99310.94;;;21.37
15144;BMP180;7672;50.834;6.286;2023-05-10T09:48:05;99311.03;;;21.35
15144;BMP180;7672;50.834;6.286;2023-05-10T09:50:33;99307.66;;;21.33
15144;BMP180;7672;50.834;6.286;2023-05-10T09:53:03;99308.56;;;21.32
15144;BMP180;7672;50.834;6.286;2023-05-10T09:58:07;99310.59;;;21.26
15144;BMP180;7672;50.834;6.286;2023-05-10T10:00:40;99304.88;;;21.19
15144;BMP180;7672;50.834;6.286;2023-05-10T10:03:14;99304.25;;;21.14
15144;BMP180;7672;50.834;6.286;2023-05-10T10:05:43;99306.88;;;21.13
15144;BMP180;7672;50.834;6.286;2023-05-10T10:08:12;99310.34;;;21.12
15144;BMP180;7672;50.834;6.286;2023-05-10T10:10:39;99310.50;;;21.09
15144;BMP180;7672;50.834;6.286;2023-05-10T10:13:13;99316.94;;;20.99
15144;BMP180;7672;50.834;6.286;2023-05-10T10:15:42;99313.91;;;20.90
15144;BMP180;7672;50.834;6.286;2023-05-10T10:18:13;99318.63;;;20.80
15144;BMP180;7672;50.834;6.286;2023-05-10T10:20:42;99317.09;;;20.76
15144;BMP180;7672;50.834;6.286;2023-05-10T10:23:09;99317.22;;;20.73
15144;BMP180;7672;50.834;6.286;2023-05-10T10:25:38;99313.16;;;20.68
15144;BMP180;7672;50.834;6.286;2023-05-10T10:28:25;99312.31;;;20.67
15144;BMP180;7672;50.834;6.286;2023-05-10T10:30:56;99316.44;;;20.71
15144;BMP180;7672;50.834;6.286;2023-05-10T10:33:56;99317.03;;;20.78
15144;BMP180;7672;50.834;6.286;2023-05-10T10:36:26;99325.31;;;20.84
15144;BMP180;7672;50.834;6.286;2023-05-10T10:39:00;99321.59;;;20.91
15144;BMP180;7672;50.834;6.286;2023-05-10T10:41:37;99320.25;;;21.01
15144;BMP180;7672;50.834;6.286;2023-05-10T10:49:31;99316.34;;;21.31
15144;BMP180;7672;50.834;6.286;2023-05-10T10:52:25;99310.38;;;21.30
15144;BMP180;7672;50.834;6.286;2023-05-10T10:55:14;99316.72;;;21.42
15144;BMP180;7672;50.834;6.286;2023-05-10T10:57:57;99314.50;;;21.71
15144;BMP180;7672;50.834;6.286;2023-05-10T11:00:35;99319.16;;;21.98
15144;BMP180;7672;50.834;6.286;2023-05-10T11:03:11;99319.97;;;22.17
15144;BMP180;7672;50.834;6.286;2023-05-10T11:05:49;99314.25;;;22.29
15144;BMP180;7672;50.834;6.286;2023-05-10T11:08:29;99315.84;;;22.32
15144;BMP180;7672;50.834;6.286;2023-05-10T11:16:24;99323.88;;;22.59
15144;BMP180;7672;50.834;6.286;2023-05-10T11:19:07;99321.34;;;22.92
15144;BMP180;7672;50.834;6.286;2023-05-10T11:24:17;99316.66;;;24.38
15144;BMP180;7672;50.834;6.286;2023-05-10T11:26:44;99320.13;;;24.82
15144;BMP180;7672;50.834;6.286;2023-05-10T11:29:13;99315.13;;;24.92
15144;BMP180;7672;50.834;6.286;2023-05-10T11:31:44;99315.06;;;25.08
15144;BMP180;7672;50.834;6.286;2023-05-10T11:34:31;99323.81;;;25.47
15144;BMP180;7672;50.834;6.286;2023-05-10T11:37:01;99312.69;;;25.87
15144;BMP180;7672;50.834;6.286;2023-05-10T11:39:31;99321.19;;;26.15
15144;BMP180;7672;50.834;6.286;2023-05-10T11:41:59;99317.97;;;26.24
15144;BMP180;7672;50.834;6.286;2023-05-10T11:44:31;99320.69;;;26.22
15144;BMP180;7672;50.834;6.286;2023-05-10T11:47:02;99316.13;;;26.26
15144;BMP180;7672;50.834;6.286;2023-05-10T11:49:29;99319.72;;;26.37
15144;BMP180;7672;50.834;6.286;2023-05-10T11:52:09;99326.19;;;26.57
15144;BMP180;7672;50.834;6.286;2023-05-10T11:54:44;99326.72;;;26.74
15144;BMP180;7672;50.834;6.286;2023-05-10T11:57:12;99322.59;;;26.84
15144;BMP180;7672;50.834;6.286;2023-05-10T11:59:39;99317.94;;;26.89
15144;BMP180;7672;50.834;6.286;2023-05-10T12:02:10;99323.72;;;26.92
15144;BMP180;7672;50.834;6.286;2023-05-10T12:04:37;99330.56;;;26.93
15144;BMP180;7672;50.834;6.286;2023-05-10T12:07:04;99329.44;;;26.97
15144;BMP180;7672;50.834;6.286;2023-05-10T12:09:32;99331.63;;;27.03
15144;BMP180;7672;50.834;6.286;2023-05-10T12:12:10;99329.03;;;27.03
15144;BMP180;7672;50.834;6.286;2023-05-10T12:14:42;99329.44;;;26.97
15144;BMP180;7672;50.834;6.286;2023-05-10T12:17:12;99336.59;;;26.94
15144;BMP180;7672;50.834;6.286;2023-05-10T12:19:40;99331.41;;;26.94
15144;BMP180;7672;50.834;6.286;2023-05-10T12:22:08;99338.22;;;26.95
15144;BMP180;7672;50.834;6.286;2023-05-10T12:24:38;99329.75;;;26.93
15144;BMP180;7672;50.834;6.286;2023-05-10T12:27:07;99328.28;;;26.89
15144;BMP180;7672;50.834;6.286;2023-05-10T12:29:35;99335.34;;;26.87
15144;BMP180;7672;50.834;6.286;2023-05-10T12:32:02;99334.81;;;26.82
15144;BMP180;7672;50.834;6.286;2023-05-10T12:34:35;99332.63;;;26.76
15144;BMP180;7672;50.834;6.286;2023-05-10T12:37:05;99332.53;;;26.65
15144;BMP180;7672;50.834;6.286;2023-05-10T12:39:43;99333.44;;;26.52
15144;BMP180;7672;50.834;6.286;2023-05-10T12:42:11;99328.22;;;26.39
15144;BMP180;7672;50.834;6.286;2023-05-10T12:44:39;99342.69;;;26.29
15144;BMP180;7672;50.834;6.286;2023-05-10T12:47:06;99344.75;;;26.24
15144;BMP180;7672;50.834;6.286;2023-05-10T12:49:34;99344.31;;;26.18
15144;BMP180;7672;50.834;6.286;2023-05-10T12:52:01;99346.75;;;26.07
15144;BMP180;7672;50.834;6.286;2023-05-10T12:54:28;99352.69;;;25.95
15144;BMP180;7672;50.834;6.286;2023-05-10T12:56:55;99365.59;;;25.83
15144;BMP180;7672;50.834;6.286;2023-05-10T12:59:22;99362.84;;;25.72
15144;BMP180;7672;50.834;6.286;2023-05-10T13:01:49;99361.81;;;25.60
15144;BMP180;7672;50.834;6.286;2023-05-10T13:04:16;99366.53;;;25.54
15144;BMP180;7672;50.834;6.286;2023-05-10T13:06:44;99364.31;;;25.48
15144;BMP180;7672;50.834;6.286;2023-05-10T13:09:11;99370.69;;;25.43
15144;BMP180;7672;50.834;6.286;2023-05-10T13:11:38;99362.09;;;25.42
15144;BMP180;7672;50.834;6.286;2023-05-10T13:14:05;99368.75;;;25.46
15144;BMP180;7672;50.834;6.286;2023-05-10T13:16:32;99365.78;;;25.52
15144;BMP180;7672;50.834;6.286;2023-05-10T13:19:00;99357.00;;;25.54
15144;BMP180;7672;50.834;6.286;2023-05-10T13:21:27;99358.66;;;25.55
15144;BMP180;7672;50.834;6.286;2023-05-10T13:23:54;99360.22;;;25.58
15144;BMP180;7672;50.834;6.286;2023-05-10T13:26:22;99363.47;;;25.61
15144;BMP180;7672;50.834;6.286;2023-05-10T13:28:49;99364.03;;;25.66
15144;BMP180;7672;50.834;6.286;2023-05-10T13:31:18;99354.25;;;25.71
15144;BMP180;7672;50.834;6.286;2023-05-10T13:33:45;99360.69;;;25.78
15144;BMP180;7672;50.834;6.286;2023-05-10T13:36:12;99360.97;;;25.88
15144;BMP180;7672;50.834;6.286;2023-05-10T13:38:39;99351.66;;;25.98
15144;BMP180;7672;50.834;6.286;2023-05-10T13:41:06;99351.06;;;26.07
15144;BMP180;7672;50.834;6.286;2023-05-10T13:43:33;99352.56;;;26.11
15144;BMP180;7672;50.834;6.286;2023-05-10T13:46:02;99355.78;;;26.14
15144;BMP180;7672;50.834;6.286;2023-05-10T13:48:29;99353.19;;;26.14
15144;BMP180;7672;50.834;6.286;2023-05-10T13:50:56;99355.16;;;26.11
15144;BMP180;7672;50.834;6.286;2023-05-10T13:53:23;99347.66;;;26.06
15144;BMP180;7672;50.834;6.286;2023-05-10T13:55:50;99353.22;;;26.00
15144;BMP180;7672;50.834;6.286;2023-05-10T13:58:17;99350.41;;;25.91
15144;BMP180;7672;50.834;6.286;2023-05-10T14:00:44;99357.19;;;25.79
15144;BMP180;7672;50.834;6.286;2023-05-10T14:03:11;99352.72;;;25.67
15144;BMP180;7672;50.834;6.286;2023-05-10T14:05:39;99353.47;;;25.55
15144;BMP180;7672;50.834;6.286;2023-05-10T14:08:06;99345.09;;;25.38
15144;BMP180;7672;50.834;6.286;2023-05-10T14:10:34;99355.91;;;25.17
15144;BMP180;7672;50.834;6.286;2023-05-10T14:13:01;99349.41;;;24.96
15144;BMP180;7672;50.834;6.286;2023-05-10T14:15:28;99355.91;;;24.74
15144;BMP180;7672;50.834;6.286;2023-05-10T14:17:55;99354.72;;;24.50
15144;BMP180;7672;50.834;6.286;2023-05-10T14:20:22;99349.09;;;24.28
15144;BMP180;7672;50.834;6.286;2023-05-10T14:22:49;99355.38;;;24.09
15144;BMP180;7672;50.834;6.286;2023-05-10T14:25:16;99353.81;;;23.91
15144;BMP180;7672;50.834;6.286;2023-05-10T14:27:43;99354.81;;;23.73
15144;BMP180;7672;50.834;6.286;2023-05-10T14:30:11;99355.59;;;23.58
15144;BMP180;7672;50.834;6.286;2023-05-10T14:32:38;99348.50;;;23.46
15144;BMP180;7672;50.834;6.286;2023-05-10T14:35:06;99351.56;;;23.37
15144;BMP180;7672;50.834;6.286;2023-05-10T14:37:34;99346.00;;;23.29
15144;BMP180;7672;50.834;6.286;2023-05-10T14:40:01;99346.31;;;23.23
15144;BMP180;7672;50.834;6.286;2023-05-10T14:42:31;99350.66;;;23.23
15144;BMP180;7672;50.834;6.286;2023-05-10T14:44:58;99352.16;;;23.27
15144;BMP180;7672;50.834;6.286;2023-05-10T14:47:25;99344.00;;;23.34
15144;BMP180;7672;50.834;6.286;2023-05-10T14:49:52;99349.44;;;23.45
15144;BMP180;7672;50.834;6.286;2023-05-10T14:52:19;99349.78;;;23.55
15144;BMP180;7672;50.834;6.286;2023-05-10T14:54:46;99353.13;;;23.57
15144;BMP180;7672;50.834;6.286;2023-05-10T14:57:13;99354.34;;;23.50
15144;BMP180;7672;50.834;6.286;2023-05-10T14:59:40;99354.00;;;23.40
15144;BMP180;7672;50.834;6.286;2023-05-10T15:02:07;99362.16;;;23.33
15144;BMP180;7672;50.834;6.286;2023-05-10T15:04:35;99358.13;;;23.27
15144;BMP180;7672;50.834;6.286;2023-05-10T15:07:03;99354.91;;;23.24
15144;BMP180;7672;50.834;6.286;2023-05-10T15:09:30;99365.28;;;23.22